Terminal Aerodrome Forecast
Issued by NWS Quad Cities IA IL

Home | Current Version | Previous Version | Text Only | Print | Product List | Glossary On
Versions: 1 2 3 4 5 6 7 8 9 10 11 12 13 14 15
000
FTUS43 KDVN 271123
TAFMLI
TAF
KMLI 271123Z 2712/2812 VRB03KT P6SM SKC
     FM271500 16009KT P6SM SCT040
     FM280000 13004KT P6SM BKN100=

USA.gov is the U.S. government's official web portal to all federal, state and local government web resources and services.